Time;durP1;ratioP1;P1;durP2;ratioP2;P2;SDS_P1;SDS_P2;PMS_P1;PMS_P2;Temp;Humidity;BMP_temperature;BMP_pressure;BME280_temperature;BME280_humidity;BME280_pressure;Samples;Min_cycle;Max_cycle;Signal;HPM_P1;HPM_P2
2024/03/11 00:02:02;;;;;;;2.08;0.95;;;6.50;99.90;;;;;;5087682;28;20028;-70
2024/03/11 00:04:28;;;;;;;3.15;1.00;;;6.20;99.90;;;;;;5086978;28;20044;-70
2024/03/11 00:06:54;;;;;;;2.38;1.15;;;6.10;99.90;;;;;;5087735;28;20028;-71
2024/03/11 00:09:20;;;;;;;9.77;1.60;;;6.20;99.90;;;;;;5087427;28;20032;-70
2024/03/11 00:11:55;;;;;;;6.95;1.15;;;6.00;99.90;;;;;;5087253;28;20170;-73
2024/03/11 00:14:26;;;;;;;1.90;1.02;;;6.00;99.90;;;;;;5087386;28;20028;-73
2024/03/11 00:16:52;;;;;;;4.68;1.10;;;6.00;99.90;;;;;;5087123;28;20032;-71
2024/03/11 00:19:18;;;;;;;1.58;1.10;;;6.10;99.90;;;;;;5087435;28;20039;-70
2024/03/11 00:21:43;;;;;;;6.97;1.20;;;6.00;99.90;;;;;;5087426;28;20579;-70
2024/03/11 00:24:09;;;;;;;5.97;1.97;;;5.90;99.90;;;;;;5086957;28;20102;-73
2024/03/11 00:26:35;;;;;;;2.45;1.10;;;5.90;99.90;;;;;;5087758;28;20016;-70
2024/03/11 00:29:04;;;;;;;3.50;1.47;;;5.80;99.90;;;;;;5087068;28;20032;-70
2024/03/11 00:31:32;;;;;;;2.05;1.02;;;5.80;99.90;;;;;;5086918;28;20050;-71
2024/03/11 00:34:00;;;;;;;1.98;1.13;;;5.90;99.90;;;;;;5054638;28;20045;-69
2024/03/11 00:36:26;;;;;;;2.60;1.30;;;6.00;99.90;;;;;;5047828;28;20121;-71
2024/03/11 00:38:52;;;;;;;4.47;2.33;;;6.00;99.90;;;;;;5057282;28;20114;-71
2024/03/11 00:41:17;;;;;;;4.97;1.77;;;5.90;99.90;;;;;;5066900;28;20477;-73
2024/03/11 00:43:43;;;;;;;13.70;4.40;;;5.80;99.90;;;;;;5066879;28;20087;-71
2024/03/11 00:46:12;;;;;;;11.17;4.87;;;5.90;99.90;;;;;;5067115;28;20523;-71
2024/03/11 00:48:37;;;;;;;6.60;3.10;;;6.10;99.90;;;;;;5067054;28;20024;-71
2024/03/11 00:51:04;;;;;;;9.50;3.33;;;6.00;99.90;;;;;;5065829;28;20033;-71
2024/03/11 00:53:30;;;;;;;6.28;2.78;;;5.80;99.90;;;;;;5076517;28;20024;-70
2024/03/11 00:55:56;;;;;;;6.68;3.55;;;5.70;99.90;;;;;;5086651;28;20104;-70
2024/03/11 00:58:23;;;;;;;10.73;3.78;;;5.60;99.90;;;;;;5086765;28;20031;-71
2024/03/11 01:00:50;;;;;;;;;;;5.90;99.90;;;;;;5087462;28;20078;-71
2024/03/11 01:03:16;;;;;;;8.00;3.75;;;5.90;99.90;;;;;;5068315;28;19912;-70
2024/03/11 01:05:42;;;;;;;7.57;3.25;;;5.80;99.90;;;;;;5066838;28;20037;-72
2024/03/11 01:08:07;;;;;;;5.23;2.93;;;5.80;99.90;;;;;;5065375;28;20493;-72
2024/03/11 01:10:33;;;;;;;5.03;2.37;;;5.70;99.90;;;;;;5066755;28;20055;-71
2024/03/11 01:12:58;;;;;;;3.67;2.07;;;6.00;99.90;;;;;;5066485;28;20062;-71
2024/03/11 01:15:25;;;;;;;4.00;2.13;;;6.10;99.90;;;;;;5066081;28;20517;-72
2024/03/11 01:17:51;;;;;;;8.10;3.25;;;6.10;99.90;;;;;;5065888;28;20036;-71
2024/03/11 01:20:17;;;;;;;5.70;2.30;;;6.00;99.90;;;;;;5064488;28;20033;-71
2024/03/11 01:22:42;;;;;;;5.10;2.22;;;5.90;99.90;;;;;;5066201;28;20059;-70
2024/03/11 01:25:09;;;;;;;5.93;2.40;;;5.80;99.90;;;;;;5066765;28;20032;-71
2024/03/11 01:27:35;;;;;;;4.43;2.28;;;5.80;99.90;;;;;;5066718;28;20025;-70
2024/03/11 01:30:01;;;;;;;6.70;2.10;;;5.70;99.90;;;;;;5065682;28;20123;-71
2024/03/11 01:32:28;;;;;;;4.63;2.72;;;5.70;99.90;;;;;;5066281;28;20058;-71
2024/03/11 01:34:55;;;;;;;4.38;2.17;;;5.70;99.90;;;;;;5066196;28;20031;-71
2024/03/11 01:37:22;;;;;;;3.92;2.00;;;5.50;99.90;;;;;;5065664;28;20078;-70
2024/03/11 01:39:51;;;;;;;5.38;2.30;;;5.40;99.90;;;;;;5066088;28;20048;-71
2024/03/11 01:42:17;;;;;;;7.47;2.88;;;5.30;99.90;;;;;;5065509;28;20147;-70
2024/03/11 01:44:45;;;;;;;5.15;2.83;;;5.20;99.90;;;;;;5065772;28;20032;-70
2024/03/11 01:47:12;;;;;;;7.30;2.60;;;5.10;99.90;;;;;;5065708;28;20051;-71
2024/03/11 01:49:43;;;;;;;5.47;2.38;;;5.20;99.90;;;;;;5066139;28;20032;-71
2024/03/11 01:52:12;;;;;;;8.23;2.40;;;5.20;99.90;;;;;;5065730;28;20016;-72
2024/03/11 01:54:38;;;;;;;8.55;2.38;;;5.10;99.90;;;;;;5077243;28;20025;-71
2024/03/11 01:57:06;;;;;;;7.43;2.10;;;5.00;99.90;;;;;;5066202;28;20110;-71
2024/03/11 01:59:35;;;;;;;8.25;1.90;;;5.00;99.90;;;;;;5065910;28;20060;-72
2024/03/11 02:02:03;;;;;;;3.08;1.83;;;4.90;99.90;;;;;;5066474;28;20103;-73
2024/03/11 02:04:30;;;;;;;4.32;1.85;;;4.80;99.90;;;;;;5065405;28;20796;-71
2024/03/11 02:06:56;;;;;;;4.15;1.80;;;4.80;99.90;;;;;;5066506;28;20108;-71
2024/03/11 02:09:21;;;;;;;2.10;1.50;;;4.80;99.90;;;;;;5069557;28;20451;-71
2024/03/11 02:11:47;;;;;;;7.00;1.93;;;4.80;99.90;;;;;;5069615;28;20043;-71
2024/03/11 02:14:13;;;;;;;8.03;2.33;;;4.70;99.90;;;;;;5070339;28;20055;-71
2024/03/11 02:16:41;;;;;;;5.05;1.70;;;4.70;99.90;;;;;;5070555;28;20021;-71
2024/03/11 02:19:11;;;;;;;3.40;2.00;;;4.70;99.90;;;;;;5069419;28;20558;-71
2024/03/11 02:21:42;;;;;;;5.22;1.70;;;4.60;99.90;;;;;;5070048;28;20051;-71
2024/03/11 02:24:08;;;;;;;7.00;1.80;;;4.70;99.90;;;;;;5068112;28;20087;-70
2024/03/11 02:26:34;;;;;;;3.78;1.95;;;4.70;99.90;;;;;;5067504;28;20062;-71
2024/03/11 02:29:00;;;;;;;4.03;1.90;;;4.70;99.90;;;;;;5069433;28;20029;-70
2024/03/11 02:31:28;;;;;;;5.88;1.70;;;4.80;99.90;;;;;;5068997;28;20020;-71
2024/03/11 02:33:54;;;;;;;3.88;1.95;;;4.70;99.90;;;;;;5068887;28;20024;-71
2024/03/11 02:36:22;;;;;;;5.88;1.65;;;4.70;99.90;;;;;;5069044;28;20098;-70
2024/03/11 02:38:47;;;;;;;4.05;1.50;;;4.80;99.90;;;;;;5068940;28;20032;-71
2024/03/11 02:41:13;;;;;;;4.10;1.90;;;4.80;99.90;;;;;;5067951;28;20089;-70
2024/03/11 02:43:39;;;;;;;4.40;1.47;;;4.90;99.90;;;;;;5068936;28;20041;-71
2024/03/11 02:46:06;;;;;;;7.10;1.73;;;4.80;99.90;;;;;;5068979;28;20551;-71
2024/03/11 02:48:31;;;;;;;2.78;1.90;;;4.70;99.90;;;;;;5068703;28;20294;-72
2024/03/11 02:50:57;;;;;;;5.50;1.63;;;4.60;99.90;;;;;;5068737;28;20119;-73
2024/03/11 02:53:23;;;;;;;6.07;1.93;;;4.80;99.90;;;;;;5077097;28;20024;-70
2024/03/11 02:55:50;;;;;;;4.30;1.83;;;4.90;99.90;;;;;;5083342;28;20052;-71
2024/03/11 02:58:15;;;;;;;7.72;2.17;;;4.90;99.90;;;;;;5068637;28;20031;-71
2024/03/11 03:00:41;;;;;;;7.53;2.47;;;4.70;99.90;;;;;;5083921;28;20024;-70
2024/03/11 03:03:06;;;;;;;4.37;1.87;;;4.70;99.90;;;;;;5068549;28;20363;-72
2024/03/11 03:05:32;;;;;;;4.63;1.80;;;4.70;99.90;;;;;;5068228;28;20586;-71
2024/03/11 03:07:58;;;;;;;4.70;2.08;;;4.70;99.90;;;;;;5068394;28;20024;-70
2024/03/11 03:10:24;;;;;;;5.30;1.70;;;4.60;99.90;;;;;;5068440;28;20041;-71
2024/03/11 03:12:49;;;;;;;5.57;1.60;;;4.60;99.90;;;;;;5068356;28;20028;-71
2024/03/11 03:15:16;;;;;;;4.37;1.47;;;4.70;99.90;;;;;;5067431;28;20900;-72
2024/03/11 03:17:42;;;;;;;2.70;1.77;;;4.70;99.90;;;;;;5067176;28;20025;-73
2024/03/11 03:20:10;;;;;;;5.10;1.90;;;4.70;99.90;;;;;;5067699;28;20028;-70
2024/03/11 03:22:35;;;;;;;3.78;2.03;;;4.80;99.90;;;;;;5066186;28;20082;-71
2024/03/11 03:25:03;;;;;;;4.97;1.83;;;4.70;99.90;;;;;;5067478;28;20248;-73
2024/03/11 03:27:29;;;;;;;4.78;2.38;;;4.70;99.90;;;;;;5068101;28;20034;-70
2024/03/11 03:29:54;;;;;;;4.50;2.03;;;4.70;99.90;;;;;;5068251;28;20111;-69
2024/03/11 03:32:22;;;;;;;4.30;2.20;;;4.70;99.90;;;;;;5066504;28;20029;-70
2024/03/11 03:34:49;;;;;;;2.90;1.52;;;4.70;99.90;;;;;;5067007;28;20017;-70
2024/03/11 03:37:14;;;;;;;6.07;2.00;;;4.70;99.90;;;;;;5082655;28;20565;-70
2024/03/11 03:39:41;;;;;;;3.63;1.70;;;4.60;99.90;;;;;;5067290;28;20029;-70
2024/03/11 03:42:07;;;;;;;3.33;2.00;;;4.60;99.90;;;;;;5067791;28;20283;-70
2024/03/11 03:44:32;;;;;;;2.87;1.60;;;4.60;99.90;;;;;;5066145;28;20036;-70
2024/03/11 03:46:58;;;;;;;4.90;1.92;;;4.50;99.90;;;;;;5068017;28;20071;-69
2024/03/11 03:49:24;;;;;;;5.83;2.10;;;4.60;99.90;;;;;;5067964;28;20078;-73
2024/03/11 03:51:49;;;;;;;5.38;2.40;;;4.50;99.90;;;;;;5067846;28;20491;-73
2024/03/11 03:54:17;;;;;;;9.13;2.30;;;4.50;99.90;;;;;;5084310;28;20058;-72
2024/03/11 03:56:44;;;;;;;3.97;2.03;;;4.50;99.90;;;;;;5088680;28;20052;-70
2024/03/11 03:59:11;;;;;;;4.60;1.98;;;4.40;99.90;;;;;;5086766;28;20052;-70
2024/03/11 04:01:36;;;;;;;3.55;1.95;;;4.50;99.90;;;;;;5087332;28;20016;-70
2024/03/11 04:04:02;;;;;;;8.90;2.57;;;4.60;99.90;;;;;;5086760;28;20047;-70
2024/03/11 04:06:27;;;;;;;5.80;2.40;;;4.50;99.90;;;;;;5087091;28;20122;-70
2024/03/11 04:08:53;;;;;;;6.30;2.27;;;4.50;99.90;;;;;;5087488;28;20285;-70
2024/03/11 04:11:20;;;;;;;2.80;1.97;;;4.50;99.90;;;;;;5086873;28;20486;-70
2024/03/11 04:13:48;;;;;;;7.43;2.90;;;4.40;99.90;;;;;;5086599;28;20027;-70
2024/03/11 04:16:16;;;;;;;5.60;3.25;;;4.30;99.90;;;;;;5086543;28;20024;-70
2024/03/11 04:18:42;;;;;;;3.95;1.98;;;4.20;99.90;;;;;;5086829;28;20523;-70
2024/03/11 04:21:08;;;;;;;;;;;4.20;99.90;;;;;;5086894;28;20050;-70
2024/03/11 04:23:33;;;;;;;5.57;2.50;;;4.20;99.90;;;;;;5084662;28;19938;-69
2024/03/11 04:26:01;;;;;;;4.53;2.20;;;4.20;99.90;;;;;;5102016;28;20391;-70
2024/03/11 04:28:29;;;;;;;6.78;2.30;;;4.20;99.90;;;;;;5087167;28;20483;-71
2024/03/11 04:30:57;;;;;;;6.45;2.58;;;4.10;99.90;;;;;;5085828;28;20020;-71
2024/03/11 04:33:23;;;;;;;5.18;2.38;;;4.20;99.90;;;;;;5081276;28;20016;-70
2024/03/11 04:35:49;;;;;;;4.43;2.20;;;4.20;99.90;;;;;;5066884;28;20539;-70
2024/03/11 04:38:15;;;;;;;5.03;2.50;;;4.10;99.90;;;;;;5066909;28;20295;-70
2024/03/11 04:40:43;;;;;;;;;;;4.10;99.90;;;;;;5067616;28;20036;-69
2024/03/11 04:43:10;;;;;;;4.75;2.40;;;4.10;99.90;;;;;;5066875;28;19920;-70
2024/03/11 04:45:40;;;;;;;6.25;2.55;;;4.00;99.90;;;;;;5066756;28;20063;-70
2024/03/11 04:48:07;;;;;;;6.70;2.38;;;4.10;99.90;;;;;;5066809;28;20412;-70
2024/03/11 04:50:33;;;;;;;4.80;2.53;;;4.20;99.90;;;;;;5066651;28;20111;-69
2024/03/11 04:53:01;;;;;;;4.57;2.65;;;4.20;99.90;;;;;;5066218;28;20019;-72
2024/03/11 04:55:27;;;;;;;7.50;2.88;;;4.30;99.90;;;;;;5066189;28;20032;-71
2024/03/11 04:57:53;;;;;;;8.50;3.17;;;4.20;99.90;;;;;;5066918;28;20074;-70
2024/03/11 05:00:20;;;;;;;6.55;3.00;;;4.20;99.90;;;;;;5066194;28;20040;-72
2024/03/11 05:02:46;;;;;;;6.68;3.20;;;4.20;99.90;;;;;;5065638;28;20031;-71
2024/03/11 05:05:11;;;;;;;6.10;3.40;;;4.30;99.90;;;;;;5060740;28;20040;-71
2024/03/11 05:07:37;;;;;;;4.35;2.65;;;4.30;99.90;;;;;;5055736;28;20614;-70
2024/03/11 05:10:04;;;;;;;5.70;2.97;;;4.30;99.90;;;;;;5055296;28;20044;-69
2024/03/11 05:12:31;;;;;;;6.22;3.33;;;4.30;99.90;;;;;;5055858;28;20264;-70
2024/03/11 05:14:58;;;;;;;7.30;3.83;;;4.40;99.90;;;;;;5056566;28;20814;-70
2024/03/11 05:17:25;;;;;;;8.43;3.22;;;4.40;99.90;;;;;;5054332;28;20558;-71
2024/03/11 05:19:51;;;;;;;;;;;4.40;99.90;;;;;;5055785;28;20056;-70
2024/03/11 05:22:17;;;;;;;5.05;2.55;;;4.50;99.90;;;;;;5054450;28;19948;-71
2024/03/11 05:24:43;;;;;;;6.25;3.25;;;4.50;99.90;;;;;;5051697;28;20087;-73
2024/03/11 05:27:10;;;;;;;6.63;3.17;;;4.50;99.90;;;;;;5056054;28;20057;-73
2024/03/11 05:29:36;;;;;;;7.97;3.08;;;4.50;99.90;;;;;;5056488;28;20047;-71
2024/03/11 05:32:02;;;;;;;6.97;3.58;;;4.40;99.90;;;;;;5056318;28;20036;-74
2024/03/11 05:34:28;;;;;;;8.88;3.17;;;4.40;99.90;;;;;;5044535;28;20029;-75
2024/03/11 05:36:55;;;;;;;8.68;3.65;;;4.40;99.90;;;;;;5057120;28;20071;-75
2024/03/11 05:39:20;;;;;;;;;;;4.40;99.90;;;;;;5057370;28;20032;-72
2024/03/11 05:41:46;;;;;;;7.57;4.13;;;4.40;99.90;;;;;;5046662;28;19966;-71
2024/03/11 05:44:12;;;;;;;9.00;4.20;;;4.50;99.90;;;;;;5075217;28;20147;-70
2024/03/11 05:46:39;;;;;;;10.07;4.00;;;4.50;99.90;;;;;;5060192;28;20101;-69
2024/03/11 05:49:13;;;;;;;7.90;3.80;;;4.50;99.90;;;;;;5060297;28;20024;-71
2024/03/11 05:51:42;;;;;;;9.25;3.55;;;4.60;99.90;;;;;;5059047;28;20870;-70
2024/03/11 05:54:17;;;;;;;6.88;3.58;;;4.60;99.90;;;;;;5053690;28;20087;-71
2024/03/11 05:56:56;;;;;;;8.07;4.35;;;4.60;99.90;;;;;;5061766;28;20032;-74
2024/03/11 05:59:23;;;;;;;8.07;3.47;;;4.70;99.90;;;;;;5057741;28;20025;-71
2024/03/11 06:01:49;;;;;;;5.22;3.00;;;4.80;99.90;;;;;;5058015;28;20423;-73
2024/03/11 06:04:15;;;;;;;5.25;2.72;;;4.80;99.90;;;;;;5052711;28;20091;-71
2024/03/11 06:06:48;;;;;;;8.13;3.30;;;4.90;99.90;;;;;;5060402;28;20408;-70
2024/03/11 06:09:16;;;;;;;4.43;2.92;;;4.90;99.90;;;;;;5059402;28;20037;-70
2024/03/11 06:11:46;;;;;;;12.73;3.83;;;5.00;99.90;;;;;;5058385;28;20085;-70
2024/03/11 06:14:12;;;;;;;6.35;3.35;;;5.00;99.90;;;;;;5057584;28;20861;-70
2024/03/11 06:16:39;;;;;;;6.68;3.20;;;5.10;99.90;;;;;;5054798;28;20029;-70
2024/03/11 06:19:08;;;;;;;6.47;3.38;;;5.10;99.90;;;;;;5059274;28;20438;-69
2024/03/11 06:21:35;;;;;;;7.28;3.25;;;5.10;99.90;;;;;;5058875;28;20032;-69
2024/03/11 06:24:01;;;;;;;8.73;3.08;;;5.20;99.90;;;;;;5057427;28;20698;-71
2024/03/11 06:26:27;;;;;;;6.82;4.03;;;5.30;99.90;;;;;;5058906;28;20119;-72
2024/03/11 06:28:52;;;;;;;12.18;5.28;;;5.30;99.90;;;;;;5055734;28;20489;-72
2024/03/11 06:31:20;;;;;;;13.50;4.40;;;5.20;99.90;;;;;;5061384;28;20040;-72
2024/03/11 06:33:46;;;;;;;25.13;5.68;;;5.20;99.90;;;;;;5059895;28;20289;-70
2024/03/11 06:36:17;;;;;;;;;;;5.20;99.90;;;;;;5048967;28;20025;-73
2024/03/11 06:38:48;;;;;;;7.80;4.80;;;5.30;99.90;;;;;;5058864;28;20364;-74
2024/03/11 06:41:15;;;;;;;6.63;4.00;;;5.40;99.90;;;;;;5058704;28;20040;-72
2024/03/11 06:43:41;;;;;;;9.35;3.70;;;5.50;99.90;;;;;;5058741;28;20032;-69
2024/03/11 06:46:06;;;;;;;12.13;3.83;;;5.60;99.90;;;;;;5061377;28;20047;-71
2024/03/11 06:48:32;;;;;;;8.40;4.10;;;5.70;99.90;;;;;;5055884;28;20040;-69
2024/03/11 06:50:57;;;;;;;12.60;4.10;;;5.80;99.90;;;;;;5072325;28;20032;-70
2024/03/11 06:53:23;;;;;;;11.63;5.90;;;5.70;99.90;;;;;;5056207;28;20461;-70
2024/03/11 06:55:49;;;;;;;8.68;4.80;;;5.60;99.90;;;;;;5058905;28;20032;-69
2024/03/11 06:58:15;;;;;;;14.73;4.30;;;5.50;99.90;;;;;;5058819;28;20172;-69
2024/03/11 07:00:41;;;;;;;8.63;3.88;;;5.40;99.90;;;;;;5058236;28;20447;-70
2024/03/11 07:03:07;;;;;;;14.10;4.93;;;5.50;99.90;;;;;;5057310;28;20033;-74
2024/03/11 07:05:33;;;;;;;17.20;6.05;;;5.50;99.90;;;;;;5050789;28;20074;-74
2024/03/11 07:07:58;;;;;;;15.53;6.50;;;5.50;99.90;;;;;;5058447;28;20044;-72
2024/03/11 07:10:24;;;;;;;7.97;5.37;;;5.50;99.90;;;;;;5060327;28;20040;-74
2024/03/11 07:12:50;;;;;;;8.90;6.03;;;5.60;99.90;;;;;;5056291;28;20109;-73
2024/03/11 07:15:16;;;;;;;18.47;5.80;;;5.60;99.90;;;;;;5052918;28;20415;-75
2024/03/11 07:17:42;;;;;;;11.80;5.55;;;5.70;99.90;;;;;;5058024;28;20033;-73
2024/03/11 07:20:13;;;;;;;10.90;5.03;;;5.60;99.90;;;;;;5059799;28;20041;-74
2024/03/11 07:22:40;;;;;;;12.05;5.60;;;5.70;99.90;;;;;;5081340;28;20032;-69
2024/03/11 07:25:10;;;;;;;12.27;5.45;;;5.60;99.90;;;;;;5066073;28;20052;-70
2024/03/11 07:27:38;;;;;;;13.88;6.05;;;5.80;99.90;;;;;;5065505;28;20059;-72
2024/03/11 07:30:06;;;;;;;14.10;6.18;;;6.00;99.90;;;;;;5061382;28;20024;-69
2024/03/11 07:32:33;;;;;;;18.15;6.43;;;6.00;99.90;;;;;;5061392;28;20492;-71
2024/03/11 07:34:58;;;;;;;13.75;5.85;;;6.10;99.90;;;;;;5065469;28;20444;-70
2024/03/11 07:37:25;;;;;;;14.48;6.20;;;6.20;99.90;;;;;;5064843;28;20191;-72
2024/03/11 07:39:52;;;;;;;16.88;5.25;;;6.20;99.90;;;;;;5060006;28;20496;-70
2024/03/11 07:42:22;;;;;;;15.35;5.43;;;6.30;99.90;;;;;;5055518;28;20515;-71
2024/03/11 07:44:51;;;;;;;8.27;5.65;;;6.40;99.90;;;;;;5058365;28;20024;-70
2024/03/11 07:47:17;;;;;;;15.32;5.65;;;6.50;99.90;;;;;;5061154;28;20031;-71
2024/03/11 07:49:43;;;;;;;14.98;5.28;;;6.60;99.90;;;;;;5051866;28;20107;-71
2024/03/11 07:52:12;;;;;;;18.38;5.65;;;6.70;99.90;;;;;;5056745;28;20033;-71
2024/03/11 07:54:38;;;;;;;10.93;4.78;;;6.80;99.90;;;;;;5058696;28;20029;-71
2024/03/11 07:57:04;;;;;;;9.77;5.22;;;7.00;99.90;;;;;;5057779;28;20115;-70
2024/03/11 07:59:30;;;;;;;20.13;6.13;;;7.10;99.90;;;;;;5056379;28;20135;-70
2024/03/11 08:01:56;;;;;;;19.02;5.63;;;7.60;99.90;;;;;;5056070;28;20033;-70
2024/03/11 08:04:21;;;;;;;19.07;5.90;;;7.90;99.90;;;;;;5050113;28;20481;-69
2024/03/11 08:06:47;;;;;;;16.40;4.77;;;9.30;99.90;;;;;;5057965;28;20085;-70
2024/03/11 08:09:14;;;;;;;9.97;4.43;;;9.00;99.90;;;;;;5057476;28;20056;-72
2024/03/11 08:11:39;;;;;;;9.27;5.15;;;8.40;99.90;;;;;;5060813;28;20111;-69
2024/03/11 08:14:05;;;;;;;18.50;5.73;;;8.00;99.90;;;;;;5054481;28;20583;-70
2024/03/11 08:16:31;;;;;;;14.43;5.70;;;7.70;99.90;;;;;;5052096;28;20029;-70
2024/03/11 08:18:57;;;;;;;17.80;6.40;;;7.70;99.90;;;;;;5055411;28;20064;-69
2024/03/11 08:21:23;;;;;;;13.20;6.20;;;7.70;99.90;;;;;;5056821;28;20401;-70
2024/03/11 08:23:48;;;;;;;12.83;5.63;;;7.70;99.90;;;;;;5057570;28;20025;-70
2024/03/11 08:26:17;;;;;;;14.70;6.13;;;7.80;99.90;;;;;;5057120;28;20404;-70
2024/03/11 08:28:43;;;;;;;12.85;5.85;;;7.90;99.90;;;;;;5053636;28;20082;-69
2024/03/11 08:31:09;;;;;;;14.80;6.32;;;8.10;99.90;;;;;;5057143;28;20036;-69
2024/03/11 08:33:36;;;;;;;12.70;5.40;;;8.30;99.90;;;;;;5054748;28;20025;-70
2024/03/11 08:36:05;;;;;;;9.68;5.57;;;8.50;99.90;;;;;;5060309;28;20352;-69
2024/03/11 08:38:32;;;;;;;8.38;5.20;;;8.90;99.90;;;;;;5055712;28;20036;-70
2024/03/11 08:40:58;;;;;;;10.82;4.70;;;9.30;99.90;;;;;;5060079;28;20063;-72
2024/03/11 08:43:24;;;;;;;;;;;9.60;99.90;;;;;;5053658;28;20040;-73
2024/03/11 08:45:50;;;;;;;11.00;6.47;;;9.40;99.90;;;;;;5057920;28;19912;-72
2024/03/11 08:48:16;;;;;;;9.93;5.70;;;9.70;99.90;;;;;;5057131;28;20577;-73
2024/03/11 08:50:42;;;;;;;9.53;5.10;;;10.00;99.90;;;;;;5058660;28;20032;-71
2024/03/11 08:53:08;;;;;;;11.68;5.68;;;9.90;99.90;;;;;;5066669;28;20028;-74
2024/03/11 08:55:34;;;;;;;9.35;5.05;;;10.10;99.90;;;;;;5060129;28;20162;-73
2024/03/11 08:58:05;;;;;;;11.02;5.18;;;10.50;99.90;;;;;;5054106;28;20105;-73
2024/03/11 09:00:31;;;;;;;10.10;5.95;;;10.80;98.30;;;;;;5055660;28;20024;-74
2024/03/11 09:02:57;;;;;;;10.55;5.07;;;11.00;98.00;;;;;;5057563;28;20029;-72
2024/03/11 09:05:23;;;;;;;8.02;4.15;;;13.70;94.30;;;;;;5058220;28;20111;-70
2024/03/11 09:07:50;;;;;;;4.82;3.22;;;13.60;87.90;;;;;;5059487;28;20028;-69
2024/03/11 09:10:17;;;;;;;9.57;4.00;;;14.00;86.90;;;;;;5061167;28;20033;-71
2024/03/11 09:12:44;;;;;;;6.50;3.40;;;13.70;87.60;;;;;;5056970;28;20083;-72
2024/03/11 09:15:17;;;;;;;8.48;3.50;;;13.30;90.00;;;;;;5051115;28;20033;-71
2024/03/11 09:17:49;;;;;;;5.88;3.10;;;12.10;91.20;;;;;;5063602;28;20412;-71
2024/03/11 09:20:15;;;;;;;7.63;3.30;;;11.70;94.30;;;;;;5057286;28;20756;-69
2024/03/11 09:22:47;;;;;;;9.82;3.30;;;11.50;95.10;;;;;;5070786;28;20115;-69
2024/03/11 09:25:18;;;;;;;5.20;2.60;;;11.60;95.00;;;;;;5069051;28;20038;-70
2024/03/11 09:27:49;;;;;;;11.15;2.80;;;11.70;95.60;;;;;;5065044;28;20029;-69
2024/03/11 09:30:16;;;;;;;10.95;2.70;;;11.40;94.00;;;;;;5063655;28;20028;-70
2024/03/11 09:32:49;;;;;;;8.30;2.97;;;11.20;94.80;;;;;;5061482;28;20029;-70
2024/03/11 09:35:18;;;;;;;8.05;3.67;;;10.90;96.90;;;;;;5052975;28;20090;-70
2024/03/11 09:37:51;;;;;;;9.73;3.72;;;10.70;99.00;;;;;;5061885;28;20082;-70
2024/03/11 09:40:19;;;;;;;9.18;3.33;;;10.70;99.40;;;;;;5067088;28;20135;-68
2024/03/11 09:42:46;;;;;;;8.98;3.90;;;10.50;99.90;;;;;;5062433;28;20036;-69
2024/03/11 09:45:18;;;;;;;6.82;3.40;;;10.50;99.90;;;;;;5056616;28;20051;-68
2024/03/11 09:47:57;;;;;;;11.13;4.28;;;10.70;99.20;;;;;;5053407;28;20111;-69
2024/03/11 09:50:32;;;;;;;12.55;5.13;;;10.90;99.50;;;;;;5062536;28;20380;-68
2024/03/11 09:53:04;;;;;;;12.90;5.50;;;11.30;98.60;;;;;;5059753;28;20029;-69
2024/03/11 09:55:30;;;;;;;8.35;3.50;;;11.60;97.40;;;;;;5060528;28;20039;-69
2024/03/11 09:58:10;;;;;;;8.98;3.90;;;11.90;97.20;;;;;;5067313;28;20044;-68
2024/03/11 10:00:48;;;;;;;6.90;3.10;;;11.80;97.00;;;;;;5058573;28;20532;-69
2024/03/11 10:03:14;;;;;;;6.25;3.08;;;11.40;96.80;;;;;;5058270;28;20032;-69
2024/03/11 10:05:40;;;;;;;5.78;3.20;;;11.20;98.10;;;;;;5062078;28;20036;-69
2024/03/11 10:08:06;;;;;;;7.95;3.88;;;11.30;97.70;;;;;;5062761;28;20093;-68
2024/03/11 10:10:35;;;;;;;8.00;3.60;;;11.20;97.90;;;;;;5057967;28;20024;-70
2024/03/11 10:13:04;;;;;;;7.72;3.85;;;11.20;97.70;;;;;;5062446;28;20060;-69
2024/03/11 10:15:33;;;;;;;10.10;3.63;;;11.40;97.70;;;;;;5060477;28;20488;-70
2024/03/11 10:18:25;;;;;;;6.75;3.47;;;11.60;97.10;;;;;;5059445;28;20029;-69
2024/03/11 10:21:00;;;;;;;5.53;3.72;;;11.70;97.00;;;;;;5057495;28;20508;-69
2024/03/11 10:23:27;;;;;;;8.35;3.80;;;11.80;96.80;;;;;;5058227;28;20045;-68
2024/03/11 10:26:19;;;;;;;7.25;4.20;;;11.90;97.40;;;;;;5058036;28;20036;-70
2024/03/11 10:28:49;;;;;;;7.20;3.83;;;12.20;95.60;;;;;;5055631;28;20488;-69
2024/03/11 10:31:27;;;;;;;8.80;4.20;;;12.90;94.50;;;;;;5061537;28;20120;-70
2024/03/11 10:34:09;;;;;;;5.85;3.65;;;13.30;94.30;;;;;;5059041;28;20025;-69
2024/03/11 10:36:39;;;;;;;5.85;3.80;;;14.00;92.40;;;;;;5062376;28;20158;-69
2024/03/11 10:41:45;;;;;;;7.43;3.28;;;13.70;91.70;;;;;;5063178;28;20024;-68
2024/03/11 10:44:16;;;;;;;8.90;3.58;;;13.50;90.90;;;;;;5061471;28;20051;-68
2024/03/11 10:46:42;;;;;;;5.05;3.75;;;13.40;90.00;;;;;;5061035;28;20024;-68
2024/03/11 10:49:14;;;;;;;8.90;4.47;;;13.50;91.70;;;;;;5057753;28;20036;-68
2024/03/11 10:51:48;;;;;;;4.72;3.85;;;13.70;91.50;;;;;;5057902;28;20051;-69
2024/03/11 10:54:28;;;;;;;7.20;3.38;;;13.40;92.10;;;;;;5067639;28;20024;-68
2024/03/11 10:56:55;;;;;;;4.43;3.25;;;12.90;90.60;;;;;;5061334;28;20039;-70
2024/03/11 10:59:22;;;;;;;6.07;3.17;;;12.40;92.90;;;;;;5064897;28;20044;-69
2024/03/11 11:01:58;;;;;;;7.57;3.53;;;12.10;92.30;;;;;;5061665;28;20043;-70
2024/03/11 11:04:33;;;;;;;5.80;3.80;;;12.20;94.20;;;;;;5057557;28;20051;-68
2024/03/11 11:07:02;;;;;;;6.60;3.55;;;12.10;93.80;;;;;;5062487;28;20067;-69
2024/03/11 11:09:29;;;;;;;10.75;3.78;;;12.20;94.50;;;;;;5057036;28;20052;-68
2024/03/11 11:11:56;;;;;;;5.85;3.25;;;12.10;94.70;;;;;;5053147;28;20039;-69
2024/03/11 11:14:27;;;;;;;6.53;3.95;;;12.00;94.60;;;;;;5057306;28;20120;-69
2024/03/11 11:16:55;;;;;;;7.40;3.47;;;11.90;94.60;;;;;;5058326;28;20037;-68
2024/03/11 11:19:23;;;;;;;6.20;2.83;;;11.80;94.80;;;;;;5052092;28;20029;-68
2024/03/11 11:21:50;;;;;;;3.80;2.78;;;12.00;93.80;;;;;;5060697;28;20063;-68
2024/03/11 11:24:31;;;;;;;5.65;3.15;;;12.20;93.90;;;;;;5057025;28;20036;-69
2024/03/11 11:27:02;;;;;;;4.68;2.58;;;12.20;93.00;;;;;;5057462;28;20036;-69
2024/03/11 11:29:29;;;;;;;8.40;2.65;;;12.00;93.60;;;;;;5062120;28;20033;-68
2024/03/11 11:32:03;;;;;;;8.13;3.33;;;11.60;94.50;;;;;;5070143;28;20025;-68
2024/03/11 11:34:48;;;;;;;6.47;2.90;;;11.40;95.20;;;;;;5059864;28;20033;-69
2024/03/11 11:37:21;;;;;;;4.22;2.67;;;11.20;95.50;;;;;;5055560;28;20107;-68
2024/03/11 11:39:46;;;;;;;5.30;3.72;;;11.10;96.00;;;;;;5058180;28;20029;-68
2024/03/11 11:42:40;;;;;;;6.83;3.60;;;11.00;96.90;;;;;;5059181;28;20053;-69
2024/03/11 11:45:11;;;;;;;4.55;3.15;;;10.90;98.20;;;;;;5056164;28;20083;-68
2024/03/11 11:47:37;;;;;;;6.18;2.65;;;10.80;98.10;;;;;;5055328;28;20047;-68
2024/03/11 11:50:23;;;;;;;4.20;2.65;;;10.70;99.10;;;;;;5060934;28;20032;-68
2024/03/11 11:53:01;;;;;;;7.88;3.22;;;10.60;99.10;;;;;;5078671;28;20028;-68
2024/03/11 11:55:27;;;;;;;5.70;3.13;;;10.60;99.40;;;;;;5059873;28;20040;-70
2024/03/11 11:58:07;;;;;;;5.23;2.97;;;10.60;99.90;;;;;;5058874;28;20032;-71
2024/03/11 12:00:46;;;;;;;5.00;3.05;;;10.60;99.90;;;;;;5058804;28;20028;-71
2024/03/11 12:03:32;;;;;;;4.70;3.08;;;10.60;99.90;;;;;;5059439;28;20477;-71
2024/03/11 12:06:00;;;;;;;4.28;2.90;;;10.70;99.90;;;;;;5053383;28;20115;-72
2024/03/11 12:08:26;;;;;;;6.45;3.00;;;10.60;99.90;;;;;;5056819;28;20033;-71
2024/03/11 12:11:11;;;;;;;6.60;2.97;;;10.70;99.60;;;;;;5056946;28;20048;-71
2024/03/11 12:13:39;;;;;;;12.38;4.07;;;10.70;99.90;;;;;;5057393;28;20037;-70
2024/03/11 12:16:10;;;;;;;4.80;3.03;;;10.60;99.90;;;;;;5057963;28;20031;-69
2024/03/11 12:18:41;;;;;;;4.75;3.35;;;10.60;99.90;;;;;;5051456;28;20029;-69
2024/03/11 12:21:11;;;;;;;9.43;3.10;;;10.60;99.90;;;;;;5052957;28;20024;-68
2024/03/11 12:23:38;;;;;;;5.57;3.30;;;10.70;99.90;;;;;;5057554;28;20041;-69
2024/03/11 12:26:06;;;;;;;8.02;3.90;;;10.70;99.90;;;;;;5055596;28;20067;-68
2024/03/11 12:28:32;;;;;;;7.90;3.35;;;10.70;99.90;;;;;;5055920;28;20032;-69
2024/03/11 12:31:00;;;;;;;7.80;4.00;;;10.60;99.90;;;;;;5060332;28;20083;-69
2024/03/11 12:33:28;;;;;;;6.40;3.70;;;10.60;99.90;;;;;;5054271;28;20314;-69
2024/03/11 12:35:55;;;;;;;10.63;4.22;;;10.60;99.90;;;;;;5049560;28;20025;-70
2024/03/11 12:38:22;;;;;;;9.48;4.28;;;10.50;99.90;;;;;;5054828;28;20048;-70
2024/03/11 12:40:47;;;;;;;5.78;2.97;;;10.50;99.90;;;;;;5055952;28;20131;-69
2024/03/11 12:43:14;;;;;;;8.57;3.17;;;10.50;99.90;;;;;;5050821;28;20460;-70
2024/03/11 12:45:47;;;;;;;4.15;2.80;;;10.50;99.90;;;;;;5058700;28;20029;-69
2024/03/11 12:48:13;;;;;;;3.97;2.80;;;10.50;99.90;;;;;;5055844;28;20029;-70
2024/03/11 12:50:43;;;;;;;6.90;2.80;;;10.60;99.90;;;;;;5054794;28;20031;-69
2024/03/11 12:53:14;;;;;;;7.50;2.78;;;10.50;99.90;;;;;;5062468;28;20060;-71
2024/03/11 12:55:40;;;;;;;4.30;2.45;;;10.50;99.90;;;;;;5066920;28;20102;-70
2024/03/11 12:58:12;;;;;;;5.95;2.33;;;10.50;99.90;;;;;;5058048;28;20108;-70
2024/03/11 13:00:40;;;;;;;8.27;2.42;;;10.50;99.90;;;;;;5057534;28;20039;-69